Time;durP1;ratioP1;P1;durP2;ratioP2;P2;SDS_P1;SDS_P2;PMS_P1;PMS_P2;Temp;Humidity;BMP_temperature;BMP_pressure;BME280_temperature;BME280_humidity;BME280_pressure;Samples;Min_cycle;Max_cycle;Signal;HPM_P1;HPM_P2
2022/06/24 00:03:26;;;;;;;3.17;2.20;;;26.40;54.00;;;;;;7354354;19;20087;-83
2022/06/24 00:06:03;;;;;;;3.35;2.05;;;26.40;53.70;;;;;;7390179;19;20007;-84
2022/06/24 00:08:33;;;;;;;4.70;1.98;;;26.50;53.80;;;;;;7387023;19;20006;-84
2022/06/24 00:11:17;;;;;;;4.20;2.20;;;26.40;53.70;;;;;;7385661;19;20033;-84
2022/06/24 00:13:47;;;;;;;13.55;2.55;;;26.40;53.80;;;;;;7383696;19;20067;-85
2022/06/24 00:16:21;;;;;;;4.25;2.45;;;26.50;54.60;;;;;;7409580;19;20014;-84
2022/06/24 00:19:20;;;;;;;4.07;2.20;;;26.50;54.20;;;;;;7383078;19;20006;-84
2022/06/24 00:22:03;;;;;;;4.70;2.20;;;26.50;54.50;;;;;;7402902;19;20015;-84
2022/06/24 00:24:34;;;;;;;4.78;2.50;;;26.50;54.50;;;;;;7384242;19;20015;-84
2022/06/24 00:27:04;;;;;;;5.37;2.47;;;26.50;54.50;;;;;;7388110;19;20015;-84
2022/06/24 00:29:35;;;;;;;3.90;2.17;;;26.50;54.70;;;;;;7395385;19;20015;-84
2022/06/24 00:32:08;;;;;;;;;;;26.40;54.40;;;;;;7386794;19;20006;-84
2022/06/24 00:34:43;;;;;;;6.78;2.72;;;26.40;54.40;;;;;;7405690;19;19915;-84
2022/06/24 00:37:28;;;;;;;3.15;2.25;;;26.30;54.60;;;;;;7431803;19;20018;-84
2022/06/24 00:40:01;;;;;;;4.35;2.50;;;26.30;54.90;;;;;;7410250;19;20031;-84
2022/06/24 00:42:32;;;;;;;4.13;2.60;;;26.30;54.70;;;;;;7413297;19;20018;-85
2022/06/24 00:45:17;;;;;;;8.05;2.25;;;26.30;54.80;;;;;;7410960;19;20014;-85
2022/06/24 00:47:47;;;;;;;10.15;2.13;;;26.20;54.50;;;;;;7411264;19;20006;-84
2022/06/24 00:50:25;;;;;;;3.17;1.70;;;26.20;54.30;;;;;;7410532;19;20018;-85
2022/06/24 00:53:01;;;;;;;2.95;1.80;;;26.10;54.50;;;;;;7410824;19;20003;-84
2022/06/24 00:55:34;;;;;;;3.25;1.80;;;26.10;54.40;;;;;;7411119;19;20006;-84
2022/06/24 00:58:04;;;;;;;2.33;1.90;;;26.10;54.30;;;;;;7429308;19;20014;-85
2022/06/24 01:00:39;;;;;;;8.23;1.88;;;26.10;54.40;;;;;;7409093;19;20003;-85
2022/06/24 01:03:14;;;;;;;7.28;2.10;;;26.10;54.50;;;;;;7409071;19;20014;-86
2022/06/24 01:05:57;;;;;;;5.22;1.83;;;26.10;54.50;;;;;;7405437;19;20006;-85
2022/06/24 01:08:26;;;;;;;4.93;1.80;;;26.10;54.50;;;;;;7407310;19;20002;-85
2022/06/24 01:10:59;;;;;;;2.75;1.90;;;26.10;54.30;;;;;;7404911;19;20046;-84
2022/06/24 01:13:32;;;;;;;3.15;1.92;;;26.10;54.40;;;;;;7402337;19;20011;-84
2022/06/24 01:16:04;;;;;;;5.88;2.05;;;26.10;54.30;;;;;;7423725;19;20042;-84
2022/06/24 01:18:34;;;;;;;7.78;1.90;;;26.10;54.40;;;;;;7394147;19;20090;-85
2022/06/24 01:21:20;;;;;;;4.97;2.33;;;26.10;54.40;;;;;;7379268;19;20478;-83
2022/06/24 01:23:52;;;;;;;3.22;1.98;;;26.00;55.20;;;;;;7383487;19;20039;-84
2022/06/24 01:26:21;;;;;;;3.67;2.20;;;25.90;56.40;;;;;;7383618;19;20017;-83
2022/06/24 01:28:51;;;;;;;6.93;2.08;;;25.90;57.20;;;;;;7376246;19;20078;-83
2022/06/24 01:31:20;;;;;;;2.22;2.03;;;25.90;58.10;;;;;;7402889;19;20018;-83
2022/06/24 01:33:49;;;;;;;6.25;2.28;;;25.90;58.30;;;;;;7380498;19;20034;-83
2022/06/24 01:36:21;;;;;;;5.68;2.13;;;25.80;58.00;;;;;;7378402;19;20098;-83
2022/06/24 01:38:53;;;;;;;5.03;2.10;;;25.80;57.90;;;;;;7377323;19;20078;-83
2022/06/24 01:41:23;;;;;;;6.97;2.20;;;25.70;57.80;;;;;;7383210;19;20780;-83
2022/06/24 01:43:55;;;;;;;6.38;2.13;;;25.70;58.50;;;;;;7373392;19;20028;-83
2022/06/24 01:46:27;;;;;;;4.05;2.22;;;25.70;58.40;;;;;;7393909;19;20019;-83
2022/06/24 01:49:01;;;;;;;13.85;2.38;;;25.60;59.00;;;;;;7379787;19;20450;-83
2022/06/24 01:51:31;;;;;;;4.82;2.30;;;25.60;59.50;;;;;;7342003;19;20491;-83
2022/06/24 01:54:07;;;;;;;4.93;2.40;;;25.50;58.80;;;;;;7373939;19;20011;-83
2022/06/24 01:56:37;;;;;;;4.72;2.42;;;25.40;58.10;;;;;;7374573;19;20018;-83
2022/06/24 01:59:07;;;;;;;3.90;2.30;;;25.40;58.40;;;;;;7374035;19;20025;-83
2022/06/24 02:01:36;;;;;;;4.63;2.33;;;25.20;59.00;;;;;;7373261;19;20028;-83
2022/06/24 02:04:11;;;;;;;3.22;2.22;;;25.20;59.40;;;;;;7397465;19;20018;-84
2022/06/24 02:06:41;;;;;;;8.05;2.40;;;25.20;59.10;;;;;;7370902;19;20729;-83
2022/06/24 02:09:16;;;;;;;8.18;3.17;;;25.20;58.60;;;;;;7374249;19;20011;-84
2022/06/24 02:14:27;;;;;;;6.70;3.65;;;25.20;62.80;;;;;;7376514;19;20816;-85
2022/06/24 02:16:57;;;;;;;7.13;3.85;;;24.90;64.10;;;;;;7375699;19;20019;-85
2022/06/24 02:19:32;;;;;;;7.60;3.92;;;24.80;65.10;;;;;;7382381;19;20454;-85
2022/06/24 02:22:01;;;;;;;9.73;3.92;;;24.70;67.20;;;;;;7397032;19;20015;-84
2022/06/24 02:24:33;;;;;;;9.75;3.13;;;24.60;67.50;;;;;;7372982;19;20045;-84
2022/06/24 02:27:01;;;;;;;6.35;3.42;;;24.60;68.10;;;;;;7371407;19;20059;-85
2022/06/24 02:29:30;;;;;;;10.45;4.32;;;24.60;69.20;;;;;;7373694;19;20036;-84
2022/06/24 02:31:59;;;;;;;10.05;3.53;;;24.50;71.20;;;;;;7376737;19;20031;-85
2022/06/24 02:34:28;;;;;;;6.15;3.42;;;24.50;71.60;;;;;;7381092;19;20023;-85
2022/06/24 02:36:57;;;;;;;5.30;3.42;;;24.50;71.90;;;;;;7399267;19;20014;-85
2022/06/24 02:39:26;;;;;;;5.57;3.80;;;24.50;71.80;;;;;;7376604;19;20015;-84
2022/06/24 02:41:57;;;;;;;6.35;3.50;;;24.50;71.20;;;;;;7386538;19;20031;-84
2022/06/24 02:44:26;;;;;;;11.90;4.22;;;24.50;70.70;;;;;;7400346;19;20034;-85
2022/06/24 02:46:55;;;;;;;7.38;3.33;;;24.50;70.50;;;;;;7395179;19;20002;-85
2022/06/24 02:49:23;;;;;;;5.22;3.30;;;24.40;70.70;;;;;;7408286;19;20006;-85
2022/06/24 02:51:52;;;;;;;12.63;3.60;;;24.40;70.10;;;;;;7384259;19;20049;-85
2022/06/24 02:54:21;;;;;;;5.47;3.30;;;24.40;69.90;;;;;;7383683;19;20010;-85
2022/06/24 02:56:50;;;;;;;5.60;3.28;;;24.30;70.00;;;;;;7391237;19;20042;-85
2022/06/24 02:59:21;;;;;;;6.93;2.95;;;24.30;69.80;;;;;;7383926;19;20011;-84
2022/06/24 03:01:50;;;;;;;;;;;24.30;68.90;;;;;;7379329;19;20019;-85
2022/06/24 03:04:19;;;;;;;8.23;2.95;;;24.40;68.90;;;;;;7400634;19;19939;-85
2022/06/24 03:06:47;;;;;;;5.70;3.30;;;24.30;69.20;;;;;;7379611;19;20014;-85
2022/06/24 03:09:16;;;;;;;8.13;3.47;;;24.30;70.00;;;;;;7378554;19;20026;-85
2022/06/24 03:11:45;;;;;;;7.57;3.15;;;24.30;69.50;;;;;;7379617;19;20018;-85
2022/06/24 03:14:17;;;;;;;10.30;3.63;;;24.30;69.50;;;;;;7380742;19;20055;-85
2022/06/24 03:16:51;;;;;;;9.60;3.17;;;24.20;69.00;;;;;;7380786;19;20443;-85
2022/06/24 03:19:20;;;;;;;5.43;2.95;;;24.20;70.10;;;;;;7404426;19;20014;-84
2022/06/24 03:21:49;;;;;;;8.00;3.65;;;24.20;70.00;;;;;;7387205;19;20010;-85
2022/06/24 03:24:18;;;;;;;8.57;3.50;;;24.20;69.40;;;;;;7378099;19;20102;-84
2022/06/24 03:26:47;;;;;;;5.47;2.92;;;24.20;69.60;;;;;;7380055;19;20011;-85
2022/06/24 03:29:16;;;;;;;7.63;3.55;;;24.10;70.30;;;;;;7377475;19;20344;-85
2022/06/24 03:34:35;;;;;;;3.95;3.25;;;24.20;70.30;;;;;;7395949;19;20018;-87
2022/06/24 03:37:03;;;;;;;14.30;10.73;;;24.10;68.00;;;;;;7402315;19;20045;-85
2022/06/24 03:39:32;;;;;;;5.97;3.90;;;24.00;67.50;;;;;;7379641;19;20022;-85
2022/06/24 03:42:01;;;;;;;6.45;3.63;;;24.00;68.10;;;;;;7382604;19;20022;-91
2022/06/24 03:44:30;;;;;;;8.68;5.85;;;24.00;68.30;;;;;;7388052;19;20027;-89
2022/06/24 03:47:01;;;;;;;11.57;8.05;;;23.90;68.70;;;;;;7382061;19;20045;-86
2022/06/24 03:49:30;;;;;;;6.10;3.17;;;23.90;68.40;;;;;;7378326;19;20017;-85
2022/06/24 03:52:02;;;;;;;17.05;3.97;;;23.90;68.60;;;;;;7402097;19;20341;-86
2022/06/24 03:54:30;;;;;;;7.50;3.10;;;23.80;69.00;;;;;;7379383;19;20033;-85
2022/06/24 03:56:59;;;;;;;14.02;3.10;;;23.80;68.60;;;;;;7377699;19;20022;-85
2022/06/24 03:59:28;;;;;;;4.65;3.35;;;23.80;69.40;;;;;;7374931;19;20743;-84
2022/06/24 04:02:02;;;;;;;9.10;2.92;;;23.80;68.40;;;;;;7375494;19;20011;-85
2022/06/24 04:04:35;;;;;;;5.03;2.90;;;23.70;68.10;;;;;;7376298;19;20035;-79
2022/06/24 04:07:10;;;;;;;3.35;2.80;;;23.80;68.30;;;;;;7397429;19;20043;-89
2022/06/24 04:10:02;;;;;;;5.47;2.65;;;23.70;67.80;;;;;;7382060;19;20010;-92
2022/06/24 04:12:32;;;;;;;9.25;4.05;;;23.70;68.20;;;;;;7383327;19;20045;-87
2022/06/24 04:15:17;;;;;;;5.30;2.70;;;23.70;67.70;;;;;;7386194;19;20018;-82
2022/06/24 04:17:47;;;;;;;6.15;3.00;;;23.70;67.80;;;;;;7378939;19;20404;-84
2022/06/24 04:20:17;;;;;;;4.57;3.10;;;23.60;67.60;;;;;;7377501;19;20580;-84
2022/06/24 04:23:02;;;;;;;9.00;3.73;;;23.60;67.10;;;;;;7397870;19;20022;-84
2022/06/24 04:28:34;;;;;;;5.20;3.17;;;23.70;67.60;;;;;;7375997;19;20052;-84
2022/06/24 04:31:04;;;;;;;10.00;3.83;;;23.70;67.50;;;;;;7402984;19;20015;-85
2022/06/24 04:33:33;;;;;;;4.97;2.88;;;23.80;67.70;;;;;;7381298;19;20019;-85
2022/06/24 04:36:02;;;;;;;4.82;3.30;;;23.80;66.90;;;;;;7382565;19;20055;-84
2022/06/24 04:38:33;;;;;;;5.78;3.42;;;23.90;67.00;;;;;;7382458;19;20002;-85
2022/06/24 04:41:02;;;;;;;9.30;3.38;;;23.90;66.70;;;;;;7377846;19;20045;-84
2022/06/24 04:43:34;;;;;;;6.18;3.35;;;23.90;66.50;;;;;;7379233;19;20032;-84
2022/06/24 04:46:04;;;;;;;6.95;2.83;;;23.90;66.20;;;;;;7400834;19;20042;-85
2022/06/24 04:48:33;;;;;;;6.10;3.15;;;23.90;66.10;;;;;;7375852;19;20045;-84
2022/06/24 04:51:20;;;;;;;4.28;3.17;;;23.80;66.20;;;;;;7375985;19;20011;-84
2022/06/24 04:53:51;;;;;;;5.40;4.10;;;23.80;65.90;;;;;;7378873;19;20014;-85
2022/06/24 04:56:20;;;;;;;5.53;2.90;;;23.80;65.80;;;;;;7378091;19;20030;-83
2022/06/24 04:58:49;;;;;;;5.32;3.20;;;23.90;65.60;;;;;;7377543;19;20045;-84
2022/06/24 05:01:17;;;;;;;5.07;3.40;;;23.90;65.20;;;;;;7398693;19;20094;-85
2022/06/24 05:03:46;;;;;;;7.15;3.47;;;23.90;65.40;;;;;;7373203;19;20438;-84
2022/06/24 05:06:17;;;;;;;4.18;3.20;;;23.90;65.50;;;;;;7375616;19;20351;-84
2022/06/24 05:08:47;;;;;;;7.18;3.30;;;23.90;65.20;;;;;;7385681;19;20020;-85
2022/06/24 05:11:18;;;;;;;10.35;3.13;;;23.90;65.10;;;;;;7377211;19;20775;-85
2022/06/24 05:13:47;;;;;;;8.25;3.70;;;23.90;65.50;;;;;;7377400;19;20037;-86
2022/06/24 05:16:16;;;;;;;8.55;3.40;;;23.90;65.30;;;;;;7396717;19;20115;-86
2022/06/24 05:18:45;;;;;;;7.70;3.10;;;23.90;65.10;;;;;;7376722;19;20437;-86
2022/06/24 05:21:14;;;;;;;5.05;3.83;;;24.00;65.50;;;;;;7376068;19;20455;-85
2022/06/24 05:23:43;;;;;;;12.18;3.90;;;24.00;64.30;;;;;;7376000;19;20018;-85
2022/06/24 05:26:12;;;;;;;5.68;3.53;;;24.00;64.40;;;;;;7374561;19;20426;-85
2022/06/24 05:28:43;;;;;;;8.07;3.90;;;24.10;64.70;;;;;;7380142;19;20010;-85
2022/06/24 05:31:16;;;;;;;6.00;3.63;;;24.10;64.00;;;;;;7402353;19;20002;-87
2022/06/24 05:33:45;;;;;;;8.02;3.88;;;24.20;64.00;;;;;;7380250;19;20108;-84
2022/06/24 05:36:14;;;;;;;8.68;3.70;;;24.30;63.60;;;;;;7379515;19;20006;-84
2022/06/24 05:38:46;;;;;;;7.88;4.10;;;24.30;63.70;;;;;;7380789;19;20510;-84
2022/06/24 05:41:15;;;;;;;5.50;3.58;;;24.30;64.00;;;;;;7387835;19;20015;-92
2022/06/24 05:43:47;;;;;;;7.53;3.70;;;24.30;63.50;;;;;;7388929;19;20018;-81
2022/06/24 05:46:16;;;;;;;7.35;3.60;;;24.30;63.70;;;;;;7399635;19;20027;-79
2022/06/24 05:48:44;;;;;;;9.45;3.92;;;24.40;64.40;;;;;;7379066;19;20014;-81
2022/06/24 05:51:15;;;;;;;13.07;4.32;;;24.40;63.50;;;;;;7378186;19;20011;-82
2022/06/24 05:56:26;;;;;;;7.03;4.22;;;24.30;63.30;;;;;;7400024;19;20014;-89
2022/06/24 05:58:58;;;;;;;6.60;3.55;;;24.30;63.30;;;;;;7396663;19;20014;-87
2022/06/24 06:01:27;;;;;;;6.00;3.50;;;24.30;63.30;;;;;;7385072;19;20447;-87
2022/06/24 06:03:56;;;;;;;11.13;4.05;;;24.30;62.90;;;;;;7403297;19;20025;-87
2022/06/24 06:06:25;;;;;;;8.25;3.80;;;24.40;63.20;;;;;;7378413;19;20021;-87
2022/06/24 06:08:54;;;;;;;7.68;3.67;;;24.40;63.30;;;;;;7375062;19;20019;-87
2022/06/24 06:11:25;;;;;;;6.60;3.10;;;24.30;63.20;;;;;;7374678;19;20039;-87
2022/06/24 06:13:58;;;;;;;8.50;3.20;;;24.30;63.60;;;;;;7373900;19;20518;-87
2022/06/24 06:16:27;;;;;;;8.70;3.25;;;24.40;63.80;;;;;;7373886;19;20105;-86
2022/06/24 06:18:56;;;;;;;9.38;3.28;;;24.40;63.50;;;;;;7394764;19;20573;-87
2022/06/24 06:21:25;;;;;;;4.88;2.95;;;24.40;62.60;;;;;;7373165;19;20010;-87
2022/06/24 06:23:53;;;;;;;6.47;3.28;;;24.40;63.50;;;;;;7374397;19;20110;-88
2022/06/24 06:26:22;;;;;;;4.13;3.00;;;24.50;62.90;;;;;;7374584;19;20682;-88
2022/06/24 06:28:51;;;;;;;10.15;3.03;;;24.40;62.30;;;;;;7380155;19;20018;-88
2022/06/24 06:31:22;;;;;;;4.95;3.25;;;24.40;62.20;;;;;;7393718;19;20503;-87
2022/06/24 06:33:51;;;;;;;9.10;2.92;;;24.20;61.10;;;;;;7374556;19;20022;-88
2022/06/24 06:36:20;;;;;;;9.82;3.03;;;24.10;61.20;;;;;;7374422;19;20022;-87
2022/06/24 06:38:49;;;;;;;6.03;2.58;;;24.10;61.30;;;;;;7375556;19;20461;-88
2022/06/24 06:41:18;;;;;;;4.97;2.75;;;24.10;61.80;;;;;;7391180;19;20058;-86
2022/06/24 06:43:47;;;;;;;6.10;2.30;;;24.10;61.70;;;;;;7405716;19;20003;-87
2022/06/24 06:46:16;;;;;;;6.40;2.65;;;24.10;61.30;;;;;;7420585;19;20018;-87
2022/06/24 06:48:48;;;;;;;4.13;2.22;;;24.00;62.00;;;;;;7383497;19;20018;-88
2022/06/24 06:51:16;;;;;;;4.93;2.45;;;24.10;62.10;;;;;;7386362;19;20022;-88
2022/06/24 06:53:45;;;;;;;6.18;2.40;;;24.20;62.80;;;;;;7377033;19;20043;-87
2022/06/24 06:56:14;;;;;;;7.05;2.63;;;24.30;62.70;;;;;;7375074;19;20707;-88
2022/06/24 06:58:42;;;;;;;8.43;2.67;;;24.30;62.40;;;;;;7373156;19;20094;-88
2022/06/24 07:01:11;;;;;;;6.25;2.50;;;24.40;62.10;;;;;;7392935;19;20127;-88
2022/06/24 07:03:40;;;;;;;11.90;2.60;;;24.40;61.30;;;;;;7372117;19;20006;-88
2022/06/24 07:06:15;;;;;;;9.90;2.38;;;24.40;61.10;;;;;;7374088;19;20442;-87
2022/06/24 07:08:43;;;;;;;6.05;2.30;;;24.50;60.80;;;;;;7374323;19;20035;-88
2022/06/24 07:11:12;;;;;;;8.80;3.05;;;24.50;60.70;;;;;;7372575;19;20086;-87
2022/06/24 07:13:41;;;;;;;6.75;2.40;;;24.50;60.20;;;;;;7374846;19;20335;-88
2022/06/24 07:16:12;;;;;;;9.25;3.00;;;24.40;60.40;;;;;;7405222;19;20031;-87
2022/06/24 07:18:41;;;;;;;5.30;2.38;;;24.40;61.00;;;;;;7379023;19;20327;-87
2022/06/24 07:21:09;;;;;;;6.10;2.20;;;24.50;60.60;;;;;;7370502;19;20082;-87
2022/06/24 07:23:41;;;;;;;6.80;2.40;;;24.50;60.90;;;;;;7373928;19;20093;-88
2022/06/24 07:26:10;;;;;;;6.70;2.75;;;24.50;60.50;;;;;;7374430;19;20018;-88
2022/06/24 07:28:39;;;;;;;8.40;2.97;;;24.50;60.70;;;;;;7378117;19;20047;-88
2022/06/24 07:31:16;;;;;;;8.43;2.60;;;24.40;61.10;;;;;;7399036;19;20018;-88
2022/06/24 07:33:44;;;;;;;6.93;2.47;;;24.40;61.10;;;;;;7379850;19;20014;-88
2022/06/24 07:36:13;;;;;;;10.30;3.13;;;24.40;60.70;;;;;;7381090;19;20505;-87
2022/06/24 07:38:45;;;;;;;5.82;2.90;;;24.30;61.00;;;;;;7386318;19;20036;-87
2022/06/24 07:41:14;;;;;;;7.45;3.10;;;24.30;61.00;;;;;;7378651;19;20081;-87
2022/06/24 07:43:43;;;;;;;10.02;2.85;;;24.30;61.30;;;;;;7379549;19;20463;-87
2022/06/24 07:46:11;;;;;;;7.13;2.85;;;24.40;61.50;;;;;;7401802;19;20026;-87
2022/06/24 07:48:40;;;;;;;6.30;3.10;;;24.40;60.80;;;;;;7380436;19;20035;-87
2022/06/24 07:51:13;;;;;;;5.40;3.28;;;24.40;60.50;;;;;;7377325;19;20011;-88
2022/06/24 07:53:46;;;;;;;9.73;3.50;;;24.50;60.90;;;;;;7380990;19;20051;-87
2022/06/24 07:58:56;;;;;;;8.32;3.10;;;24.50;59.70;;;;;;7382035;19;20011;-87
2022/06/24 08:01:25;;;;;;;12.18;3.22;;;24.40;59.80;;;;;;7404049;19;20010;-87
2022/06/24 08:03:53;;;;;;;9.95;3.13;;;24.40;60.90;;;;;;7383079;19;20692;-87
2022/06/24 08:06:22;;;;;;;10.07;3.28;;;24.50;60.00;;;;;;7378273;19;20011;-87
2022/06/24 08:08:53;;;;;;;9.65;3.20;;;24.40;59.80;;;;;;7378984;19;20039;-87
2022/06/24 08:11:22;;;;;;;;;;;24.40;59.80;;;;;;7380643;19;20007;-87
2022/06/24 08:13:50;;;;;;;6.10;1.98;;;24.40;59.40;;;;;;7380061;19;20324;-87
2022/06/24 08:16:19;;;;;;;5.65;2.20;;;24.10;58.00;;;;;;7398104;19;20086;-87
2022/06/24 08:18:48;;;;;;;12.02;2.15;;;24.10;58.80;;;;;;7378880;19;20011;-87
2022/06/24 08:21:17;;;;;;;6.97;1.88;;;24.10;58.20;;;;;;7377995;19;20014;-87
2022/06/24 08:23:45;;;;;;;7.13;1.98;;;24.20;58.40;;;;;;7381470;19;20072;-87
2022/06/24 08:26:17;;;;;;;6.00;1.88;;;24.30;58.20;;;;;;7384118;19;20651;-87
2022/06/24 08:28:45;;;;;;;8.23;2.10;;;24.40;57.90;;;;;;7379349;19;20027;-87
2022/06/24 08:31:14;;;;;;;6.38;1.67;;;24.40;57.10;;;;;;7400440;19;20090;-87
2022/06/24 08:33:43;;;;;;;2.35;1.60;;;24.40;56.90;;;;;;7377509;19;20014;-87
2022/06/24 08:36:12;;;;;;;8.77;1.70;;;24.30;57.10;;;;;;7378499;19;20017;-86
2022/06/24 08:38:41;;;;;;;3.78;1.30;;;24.40;56.60;;;;;;7382973;19;20022;-86
2022/06/24 08:41:09;;;;;;;4.18;1.73;;;24.40;57.10;;;;;;7383914;19;20094;-86
2022/06/24 08:43:41;;;;;;;3.95;1.52;;;24.60;57.10;;;;;;7383927;19;20023;-86
2022/06/24 08:46:10;;;;;;;4.63;1.60;;;24.70;56.40;;;;;;7405187;19;20018;-86
2022/06/24 08:48:41;;;;;;;6.75;1.80;;;24.60;57.20;;;;;;7384465;19;20074;-87
2022/06/24 08:51:09;;;;;;;7.70;1.63;;;24.60;57.00;;;;;;7380497;19;21141;-86
2022/06/24 08:53:40;;;;;;;2.92;1.75;;;24.60;57.50;;;;;;7380506;19;20025;-86
2022/06/24 08:56:09;;;;;;;8.23;1.95;;;24.70;57.40;;;;;;7381121;19;20558;-86
2022/06/24 08:58:42;;;;;;;3.70;1.50;;;24.80;56.70;;;;;;7377836;19;20018;-85
2022/06/24 09:01:15;;;;;;;3.78;1.55;;;24.70;56.60;;;;;;7397903;19;20089;-86
2022/06/24 09:03:45;;;;;;;5.40;1.83;;;24.70;56.70;;;;;;7375574;19;20014;-86
2022/06/24 09:06:15;;;;;;;5.88;1.40;;;24.70;56.60;;;;;;7376543;19;20028;-86
2022/06/24 09:08:48;;;;;;;6.13;1.42;;;24.80;56.70;;;;;;7376913;19;20483;-86
2022/06/24 09:11:18;;;;;;;5.30;1.20;;;24.80;55.60;;;;;;7377814;19;21445;-86
2022/06/24 09:13:52;;;;;;;9.55;1.90;;;24.70;55.30;;;;;;7381411;19;20353;-86
2022/06/24 09:16:22;;;;;;;3.88;1.20;;;24.90;55.60;;;;;;7402346;19;20014;-86
2022/06/24 09:18:54;;;;;;;5.35;1.00;;;24.90;55.00;;;;;;7379469;19;20089;-86
2022/06/24 09:21:28;;;;;;;5.85;1.15;;;24.90;55.50;;;;;;7376769;19;20015;-86
2022/06/24 09:23:59;;;;;;;3.20;1.20;;;24.80;54.40;;;;;;7378165;19;20014;-86
2022/06/24 09:26:36;;;;;;;2.90;1.03;;;24.70;54.60;;;;;;7379012;19;20019;-86
2022/06/24 09:29:08;;;;;;;5.88;1.02;;;24.70;54.70;;;;;;7379960;19;20258;-86
2022/06/24 09:31:38;;;;;;;4.65;1.10;;;24.80;55.10;;;;;;7378520;19;20025;-86
2022/06/24 09:34:13;;;;;;;2.92;1.02;;;24.90;55.20;;;;;;7399359;19;20095;-86
2022/06/24 09:36:44;;;;;;;2.38;1.42;;;24.80;54.60;;;;;;7377529;19;20054;-85
2022/06/24 09:39:15;;;;;;;2.35;1.00;;;24.90;55.00;;;;;;7379637;19;20026;-86
2022/06/24 09:41:46;;;;;;;2.60;0.70;;;25.00;55.20;;;;;;7382954;19;20592;-86
2022/06/24 09:44:19;;;;;;;2.80;1.00;;;25.10;54.30;;;;;;7375966;19;20042;-86
2022/06/24 09:46:49;;;;;;;1.73;1.27;;;25.30;54.40;;;;;;7379993;19;20826;-86
2022/06/24 09:49:20;;;;;;;3.60;1.30;;;25.30;54.30;;;;;;7398726;19;20022;-86
2022/06/24 09:51:49;;;;;;;2.35;1.17;;;25.30;53.30;;;;;;7374271;19;20569;-86
2022/06/24 09:54:18;;;;;;;1.13;0.60;;;25.40;53.30;;;;;;7376061;19;20312;-86
2022/06/24 09:56:50;;;;;;;1.67;1.15;;;25.30;53.50;;;;;;7374628;19;20081;-86
2022/06/24 10:02:04;;;;;;;2.00;0.90;;;25.30;53.70;;;;;;7376798;19;20061;-86
2022/06/24 10:04:35;;;;;;;2.67;1.05;;;25.30;53.10;;;;;;7378054;19;20018;-85
2022/06/24 10:07:06;;;;;;;0.77;0.77;;;25.20;53.10;;;;;;7397193;19;20014;-86
2022/06/24 10:09:36;;;;;;;2.00;1.00;;;25.00;54.00;;;;;;7375653;19;20015;-86
2022/06/24 10:12:07;;;;;;;1.50;0.83;;;25.00;54.10;;;;;;7375775;19;20102;-86
2022/06/24 10:14:39;;;;;;;1.55;1.00;;;24.90;54.60;;;;;;7374574;19;20050;-86
2022/06/24 10:17:08;;;;;;;2.97;0.90;;;24.90;54.80;;;;;;7376717;19;20093;-86
2022/06/24 10:19:37;;;;;;;4.53;0.90;;;24.80;54.80;;;;;;7374151;19;20045;-85
2022/06/24 10:22:06;;;;;;;4.68;1.00;;;24.90;55.40;;;;;;7394223;19;20074;-86
2022/06/24 10:24:43;;;;;;;6.28;1.33;;;24.90;54.60;;;;;;7373557;19;20409;-86
2022/06/24 10:27:11;;;;;;;6.93;1.00;;;24.90;54.00;;;;;;7376557;19;20458;-87
2022/06/24 10:29:45;;;;;;;4.25;0.80;;;25.20;54.60;;;;;;7378606;19;20026;-87
2022/06/24 10:32:14;;;;;;;0.95;0.65;;;25.40;53.40;;;;;;7375670;19;20086;-86
2022/06/24 10:34:47;;;;;;;3.33;0.77;;;25.50;52.30;;;;;;7373956;19;20022;-86
2022/06/24 10:37:29;;;;;;;2.97;1.10;;;25.60;52.20;;;;;;7396688;19;20051;-87
2022/06/24 10:40:01;;;;;;;1.67;0.90;;;25.70;51.90;;;;;;7375196;19;20031;-86
2022/06/24 10:42:30;;;;;;;4.95;0.80;;;25.60;51.90;;;;;;7382358;19;20015;-86
2022/06/24 10:45:03;;;;;;;0.82;0.60;;;25.70;52.20;;;;;;7402225;19;20011;-87
2022/06/24 10:47:43;;;;;;;1.75;0.70;;;25.80;51.30;;;;;;7401869;19;20332;-86
2022/06/24 10:50:21;;;;;;;3.10;0.80;;;25.90;51.00;;;;;;7385409;19;20053;-86
2022/06/24 10:53:03;;;;;;;1.08;0.70;;;25.90;51.20;;;;;;7385140;19;20094;-86
2022/06/24 10:55:39;;;;;;;1.55;0.98;;;25.90;51.40;;;;;;7379694;19;20018;-86
2022/06/24 10:58:11;;;;;;;2.83;1.00;;;25.80;51.60;;;;;;7395997;19;20308;-85
2022/06/24 11:00:54;;;;;;;5.53;0.98;;;26.00;52.00;;;;;;7374300;19;20019;-86
2022/06/24 11:03:38;;;;;;;4.28;1.00;;;26.10;51.80;;;;;;7380776;19;20010;-86
2022/06/24 11:06:11;;;;;;;1.70;0.90;;;26.20;51.30;;;;;;7383889;19;20017;-86
2022/06/24 11:08:41;;;;;;;2.60;1.00;;;26.30;51.60;;;;;;7384391;19;20015;-86
2022/06/24 11:11:10;;;;;;;3.80;1.05;;;26.40;51.20;;;;;;7389838;19;20014;-86
2022/06/24 11:13:53;;;;;;;1.00;0.90;;;26.50;51.60;;;;;;7381424;19;20010;-87
2022/06/24 11:16:28;;;;;;;2.58;0.93;;;26.60;52.20;;;;;;7410244;19;20435;-87
2022/06/24 11:18:57;;;;;;;0.77;0.77;;;26.70;51.80;;;;;;7383747;19;20047;-86
2022/06/24 11:21:25;;;;;;;1.23;0.77;;;26.80;49.80;;;;;;7378830;19;20099;-87
2022/06/24 11:23:57;;;;;;;0.60;0.60;;;26.80;49.70;;;;;;7381038;19;20018;-87
2022/06/24 11:26:26;;;;;;;1.02;0.70;;;26.80;49.40;;;;;;7381044;19;20014;-87
2022/06/24 11:28:56;;;;;;;0.75;0.63;;;26.90;50.10;;;;;;7377507;19;20314;-86
2022/06/24 11:31:29;;;;;;;0.50;0.50;;;26.90;49.40;;;;;;7401766;19;20035;-87
2022/06/24 11:34:12;;;;;;;0.82;0.77;;;26.70;49.00;;;;;;7379621;19;20360;-87
2022/06/24 11:36:43;;;;;;;0.55;0.40;;;26.70;49.50;;;;;;7376805;19;20045;-86
2022/06/24 11:39:14;;;;;;;1.50;0.60;;;26.80;49.60;;;;;;7379709;19;20073;-86
2022/06/24 11:41:50;;;;;;;2.67;0.60;;;26.90;49.90;;;;;;7383166;19;20038;-86
2022/06/24 11:44:19;;;;;;;2.60;1.00;;;26.90;49.80;;;;;;7381145;19;20055;-86
2022/06/24 11:46:54;;;;;;;3.95;0.82;;;27.00;49.50;;;;;;7377896;19;20330;-87
2022/06/24 11:49:24;;;;;;;0.77;0.70;;;26.90;50.20;;;;;;7401398;19;20023;-86
2022/06/24 11:51:53;;;;;;;2.70;1.10;;;26.60;50.70;;;;;;7379419;19;20014;-86
2022/06/24 11:54:27;;;;;;;1.75;0.77;;;26.60;50.50;;;;;;7379407;19;20030;-86
2022/06/24 11:56:56;;;;;;;1.20;0.60;;;26.50;50.00;;;;;;7377738;19;20020;-86
2022/06/24 11:59:26;;;;;;;1.75;0.68;;;26.40;49.70;;;;;;7379396;19;20011;-87
2022/06/24 12:01:58;;;;;;;0.60;0.60;;;26.60;50.30;;;;;;7377210;19;20062;-86
2022/06/24 12:04:29;;;;;;;3.22;0.60;;;26.70;50.00;;;;;;7393798;19;20018;-85
2022/06/24 12:06:59;;;;;;;0.90;0.80;;;26.80;49.80;;;;;;7409571;19;20010;-86
2022/06/24 12:09:27;;;;;;;0.90;0.57;;;26.80;49.40;;;;;;7384592;19;20063;-86
2022/06/24 12:11:56;;;;;;;1.25;0.70;;;26.50;52.50;;;;;;7395951;19;20038;-87
2022/06/24 12:14:25;;;;;;;1.20;0.73;;;26.40;52.60;;;;;;7390912;19;20043;-86
2022/06/24 12:17:01;;;;;;;5.38;0.90;;;26.40;52.40;;;;;;7400418;19;20010;-87
2022/06/24 12:19:31;;;;;;;1.48;0.82;;;26.40;51.70;;;;;;7399244;19;20062;-85
2022/06/24 12:22:08;;;;;;;0.93;0.80;;;26.30;51.40;;;;;;7417147;19;20467;-87
2022/06/24 12:24:38;;;;;;;4.43;0.82;;;26.50;52.00;;;;;;7386186;19;20279;-86
2022/06/24 12:27:08;;;;;;;2.35;0.90;;;26.60;50.80;;;;;;7379949;19;20346;-86
2022/06/24 12:29:38;;;;;;;1.87;1.20;;;26.70;50.10;;;;;;7385003;19;20032;-86
2022/06/24 12:32:12;;;;;;;2.80;1.25;;;26.80;50.20;;;;;;7382177;19;20252;-87
2022/06/24 12:34:42;;;;;;;2.38;0.90;;;26.80;50.20;;;;;;7376802;19;20085;-87
2022/06/24 12:37:14;;;;;;;2.40;0.77;;;26.90;50.40;;;;;;7400376;19;20026;-86
2022/06/24 12:39:47;;;;;;;3.08;0.80;;;27.00;49.30;;;;;;7378120;19;20082;-86
2022/06/24 12:42:17;;;;;;;2.97;0.80;;;27.10;49.10;;;;;;7375663;19;20026;-86
2022/06/24 12:44:48;;;;;;;2.58;0.70;;;27.20;48.10;;;;;;7378079;19;20019;-86
2022/06/24 12:52:49;;;;;;;7.22;2.13;;;26.80;48.20;;;;;;7382725;19;20023;-86
2022/06/24 12:55:20;;;;;;;6.90;1.52;;;26.70;50.60;;;;;;7402600;19;20070;-86
2022/06/24 12:57:48;;;;;;;4.45;1.30;;;26.70;51.10;;;;;;7377468;19;20347;-87
2022/06/24 13:00:19;;;;;;;8.73;1.20;;;26.70;51.80;;;;;;7376997;19;20051;-86
2022/06/24 13:02:52;;;;;;;2.25;0.90;;;26.50;50.40;;;;;;7377741;19;20028;-86
2022/06/24 13:05:23;;;;;;;3.15;1.08;;;26.30;50.80;;;;;;7375606;19;20470;-87
2022/06/24 13:07:53;;;;;;;7.85;1.25;;;26.30;50.00;;;;;;7376259;19;20014;-87
2022/06/24 13:10:22;;;;;;;1.58;0.90;;;26.20;50.00;;;;;;7400450;19;20025;-87
2022/06/24 13:12:51;;;;;;;5.78;0.93;;;25.90;50.40;;;;;;7378629;19;20023;-87
2022/06/24 13:15:20;;;;;;;7.07;0.90;;;26.00;51.00;;;;;;7380063;19;20035;-88
2022/06/24 13:17:52;;;;;;;2.78;1.35;;;26.00;50.80;;;;;;7384162;19;20018;-87
2022/06/24 13:20:20;;;;;;;1.75;0.90;;;26.20;51.10;;;;;;7377716;19;20070;-85
2022/06/24 13:22:49;;;;;;;11.18;1.60;;;26.10;50.90;;;;;;7377588;19;20018;-85
2022/06/24 13:25:18;;;;;;;1.98;1.27;;;25.80;51.80;;;;;;7395949;19;20875;-85
2022/06/24 13:27:48;;;;;;;4.60;1.45;;;25.90;52.30;;;;;;7381877;19;20066;-86
2022/06/24 13:30:17;;;;;;;3.67;1.10;;;25.90;52.40;;;;;;7381735;19;20036;-86
2022/06/24 13:32:45;;;;;;;5.75;1.40;;;25.80;52.40;;;;;;7380909;19;20035;-86